首页
METAR-TAF:

METAR-TAF

机场 :

Kugaaruk, 努那武特, 加拿大

纬度: 68-32N, 经度: 089-49W, 海拔: 15米

当前天气观测

该预报发布于12小时和9分钟前的00:00 UTC
风速16节,风向西南
温度 -28°C
湿度 68%
气压 1015 hPa
能見度: 24.1公里
少量云层高于2000英尺
低吹雪

METAR: CYBB 180000Z 23016KT 15SM DRSN FEW020 M28/M32 A2998 RMK SC2 -17.4/-28.4/0.0/16/MUCH LOOSE/LAST STFD OBS/NXT/181300Z SLP155

时间: 05:09 (12:09 UTC)

预报

该预报发布于17小时和31分钟前的18:38 UTC
预报有效从17日的 19点(UTC)到 17日的 24点(UTC)
风速15节,风向西转西南
能見度: 10公里
少量云层高于5000英尺

TAF: CYBB 171838Z 1719/1724 24015KT P6SM FEW050 RMK NXT FCST WILL BE ISSUED AT 181445Z

超过4000个机场的气象观测和天气预报(METAR&TAF报告)。

可查询的气象台以黄色和红色小点在地图上表示。

将鼠标移到小点上方,可查看气象台名称。

然后点击查看天气观测和预报。

如需切换地图:点击带黑十字的绿色按钮放大地图;点击带横线的绿色按钮缩小地图;或者点击绿色箭头查看邻近地区的地图。


METAR-TAF: